sensor_id;sensor_type;location;lat;lon;timestamp;pressure;altitude;pressure_sealevel;temperature;humidity
37066;BME280;22981;43.080;25.550;2023-04-06T00:01:11;99368.48;;;4.38;65.04
37066;BME280;22981;43.080;25.550;2023-04-06T00:03:38;99372.30;;;4.36;65.19
37066;BME280;22981;43.080;25.550;2023-04-06T00:06:06;99365.05;;;4.34;65.30
37066;BME280;22981;43.080;25.550;2023-04-06T00:08:34;99367.70;;;4.34;65.28
37066;BME280;22981;43.080;25.550;2023-04-06T00:11:01;99369.19;;;4.32;65.33
37066;BME280;22981;43.080;25.550;2023-04-06T00:13:29;99368.05;;;4.31;65.40
37066;BME280;22981;43.080;25.550;2023-04-06T00:15:57;99368.56;;;4.30;65.46
37066;BME280;22981;43.080;25.550;2023-04-06T00:18:24;99354.61;;;4.32;65.58
37066;BME280;22981;43.080;25.550;2023-04-06T00:20:52;99359.91;;;4.32;65.72
37066;BME280;22981;43.080;25.550;2023-04-06T00:23:20;99352.00;;;4.28;65.71
37066;BME280;22981;43.080;25.550;2023-04-06T00:25:48;99344.90;;;4.29;65.69
37066;BME280;22981;43.080;25.550;2023-04-06T00:28:16;99351.64;;;4.31;65.67
37066;BME280;22981;43.080;25.550;2023-04-06T00:30:46;99347.86;;;4.30;65.59
37066;BME280;22981;43.080;25.550;2023-04-06T00:33:13;99341.59;;;4.26;65.42
37066;BME280;22981;43.080;25.550;2023-04-06T00:35:41;99340.46;;;4.25;65.41
37066;BME280;22981;43.080;25.550;2023-04-06T00:38:09;99341.01;;;4.20;65.52
37066;BME280;22981;43.080;25.550;2023-04-06T00:40:36;99335.91;;;4.15;65.75
37066;BME280;22981;43.080;25.550;2023-04-06T00:43:09;99332.17;;;4.09;65.97
37066;BME280;22981;43.080;25.550;2023-04-06T00:45:37;99326.09;;;4.05;66.20
37066;BME280;22981;43.080;25.550;2023-04-06T00:48:06;99323.48;;;4.00;66.42
37066;BME280;22981;43.080;25.550;2023-04-06T00:50:34;99326.48;;;3.97;66.53
37066;BME280;22981;43.080;25.550;2023-04-06T00:53:02;99326.98;;;3.97;66.46
37066;BME280;22981;43.080;25.550;2023-04-06T00:55:30;99326.67;;;3.96;66.46
37066;BME280;22981;43.080;25.550;2023-04-06T00:57:59;99327.17;;;3.95;66.56
37066;BME280;22981;43.080;25.550;2023-04-06T01:00:27;99320.09;;;3.92;66.56
37066;BME280;22981;43.080;25.550;2023-04-06T01:02:55;99323.91;;;3.89;66.60
37066;BME280;22981;43.080;25.550;2023-04-06T01:05:22;99316.16;;;3.88;66.60
37066;BME280;22981;43.080;25.550;2023-04-06T01:07:50;99314.20;;;3.86;66.62
37066;BME280;22981;43.080;25.550;2023-04-06T01:10:27;99311.08;;;3.82;66.66
37066;BME280;22981;43.080;25.550;2023-04-06T01:12:55;99315.79;;;3.72;66.66
37066;BME280;22981;43.080;25.550;2023-04-06T01:15:24;99308.77;;;3.64;66.83
37066;BME280;22981;43.080;25.550;2023-04-06T01:17:53;99317.05;;;3.61;66.97
37066;BME280;22981;43.080;25.550;2023-04-06T01:20:20;99305.52;;;3.54;67.17
37066;BME280;22981;43.080;25.550;2023-04-06T01:22:48;99305.40;;;3.51;67.30
37066;BME280;22981;43.080;25.550;2023-04-06T01:25:16;99305.59;;;3.46;67.47
37066;BME280;22981;43.080;25.550;2023-04-06T01:27:43;99306.13;;;3.41;67.60
37066;BME280;22981;43.080;25.550;2023-04-06T01:30:11;99300.01;;;3.41;67.67
37066;BME280;22981;43.080;25.550;2023-04-06T01:32:39;99292.77;;;3.39;67.70
37066;BME280;22981;43.080;25.550;2023-04-06T01:35:06;99292.92;;;3.37;67.84
37066;BME280;22981;43.080;25.550;2023-04-06T01:37:34;99294.12;;;3.35;68.01
37066;BME280;22981;43.080;25.550;2023-04-06T01:40:02;99291.78;;;3.36;68.09
37066;BME280;22981;43.080;25.550;2023-04-06T01:42:29;99286.49;;;3.36;68.14
37066;BME280;22981;43.080;25.550;2023-04-06T01:44:57;99288.95;;;3.37;68.21
37066;BME280;22981;43.080;25.550;2023-04-06T01:47:25;99290.94;;;3.39;68.27
37066;BME280;22981;43.080;25.550;2023-04-06T01:49:52;99290.94;;;3.39;68.37
37066;BME280;22981;43.080;25.550;2023-04-06T01:52:20;99282.34;;;3.37;68.56
37066;BME280;22981;43.080;25.550;2023-04-06T01:54:47;99281.33;;;3.38;68.72
37066;BME280;22981;43.080;25.550;2023-04-06T01:57:15;99281.67;;;3.39;68.80
37066;BME280;22981;43.080;25.550;2023-04-06T01:59:43;99280.86;;;3.39;68.83
37066;BME280;22981;43.080;25.550;2023-04-06T02:02:10;99283.41;;;3.28;68.91
37066;BME280;22981;43.080;25.550;2023-04-06T02:04:39;99278.83;;;3.22;69.07
37066;BME280;22981;43.080;25.550;2023-04-06T02:07:06;99291.73;;;3.17;69.06
37066;BME280;22981;43.080;25.550;2023-04-06T02:09:34;99288.83;;;3.08;69.21
37066;BME280;22981;43.080;25.550;2023-04-06T02:12:02;99277.33;;;3.00;69.39
37066;BME280;22981;43.080;25.550;2023-04-06T02:14:29;99279.18;;;2.96;69.61
37066;BME280;22981;43.080;25.550;2023-04-06T02:16:57;99276.32;;;3.01;69.73
37066;BME280;22981;43.080;25.550;2023-04-06T02:19:25;99273.47;;;3.07;69.75
37066;BME280;22981;43.080;25.550;2023-04-06T02:21:52;99271.61;;;3.12;69.73
37066;BME280;22981;43.080;25.550;2023-04-06T02:24:20;99268.59;;;3.19;69.69
37066;BME280;22981;43.080;25.550;2023-04-06T02:26:47;99266.92;;;3.22;69.61
37066;BME280;22981;43.080;25.550;2023-04-06T02:29:15;99261.77;;;3.24;69.66
37066;BME280;22981;43.080;25.550;2023-04-06T02:31:43;99264.88;;;3.28;69.64
37066;BME280;22981;43.080;25.550;2023-04-06T02:34:10;99265.70;;;3.29;69.66
37066;BME280;22981;43.080;25.550;2023-04-06T02:36:40;99256.28;;;3.30;69.71
37066;BME280;22981;43.080;25.550;2023-04-06T02:39:07;99254.42;;;3.35;69.76
37066;BME280;22981;43.080;25.550;2023-04-06T02:41:35;99256.03;;;3.40;69.76
37066;BME280;22981;43.080;25.550;2023-04-06T02:44:03;99251.88;;;3.41;69.83
37066;BME280;22981;43.080;25.550;2023-04-06T02:46:31;99253.86;;;3.43;69.91
37066;BME280;22981;43.080;25.550;2023-04-06T02:48:58;99251.52;;;3.44;70.09
37066;BME280;22981;43.080;25.550;2023-04-06T02:51:27;99256.97;;;3.47;70.20
37066;BME280;22981;43.080;25.550;2023-04-06T02:53:54;99261.92;;;3.46;70.30
37066;BME280;22981;43.080;25.550;2023-04-06T02:56:22;99256.00;;;3.44;70.42
37066;BME280;22981;43.080;25.550;2023-04-06T02:58:50;99256.06;;;3.36;70.47
37066;BME280;22981;43.080;25.550;2023-04-06T03:01:17;99257.67;;;3.22;70.65
37066;BME280;22981;43.080;25.550;2023-04-06T03:03:45;99249.66;;;3.07;70.94
37066;BME280;22981;43.080;25.550;2023-04-06T03:06:12;99252.84;;;3.03;71.12
37066;BME280;22981;43.080;25.550;2023-04-06T03:08:40;99254.03;;;3.00;71.27
37066;BME280;22981;43.080;25.550;2023-04-06T03:11:08;99254.19;;;2.98;71.30
37066;BME280;22981;43.080;25.550;2023-04-06T03:13:37;99252.70;;;3.00;71.31
37066;BME280;22981;43.080;25.550;2023-04-06T03:16:07;99255.64;;;3.05;71.16
37066;BME280;22981;43.080;25.550;2023-04-06T03:18:35;99253.13;;;3.08;71.08
37066;BME280;22981;43.080;25.550;2023-04-06T03:21:02;99265.19;;;3.10;71.06
37066;BME280;22981;43.080;25.550;2023-04-06T03:23:30;99260.41;;;3.10;71.03
37066;BME280;22981;43.080;25.550;2023-04-06T03:25:57;99263.20;;;3.08;71.11
37066;BME280;22981;43.080;25.550;2023-04-06T03:28:25;99264.19;;;3.11;71.02
37066;BME280;22981;43.080;25.550;2023-04-06T03:30:53;99255.93;;;3.10;71.05
37066;BME280;22981;43.080;25.550;2023-04-06T03:33:20;99254.61;;;3.10;71.03
37066;BME280;22981;43.080;25.550;2023-04-06T03:35:48;99254.95;;;3.07;71.08
37066;BME280;22981;43.080;25.550;2023-04-06T03:38:16;99260.23;;;3.07;71.14
37066;BME280;22981;43.080;25.550;2023-04-06T03:40:43;99254.95;;;3.07;71.18
37066;BME280;22981;43.080;25.550;2023-04-06T03:43:11;99265.72;;;3.06;71.23
37066;BME280;22981;43.080;25.550;2023-04-06T03:45:39;99257.28;;;3.06;71.40
37066;BME280;22981;43.080;25.550;2023-04-06T03:48:06;99256.12;;;3.09;71.55
37066;BME280;22981;43.080;25.550;2023-04-06T03:50:34;99259.36;;;3.15;71.58
37066;BME280;22981;43.080;25.550;2023-04-06T03:53:01;99256.84;;;3.21;71.54
37066;BME280;22981;43.080;25.550;2023-04-06T03:55:29;99260.28;;;3.26;71.52
37066;BME280;22981;43.080;25.550;2023-04-06T03:57:57;99263.88;;;3.29;71.52
37066;BME280;22981;43.080;25.550;2023-04-06T04:00:25;99265.20;;;3.29;71.59
37066;BME280;22981;43.080;25.550;2023-04-06T04:02:52;99264.85;;;3.32;71.62
37066;BME280;22981;43.080;25.550;2023-04-06T04:05:20;99266.48;;;3.33;71.62
37066;BME280;22981;43.080;25.550;2023-04-06T04:07:49;99265.01;;;3.35;71.61
37066;BME280;22981;43.080;25.550;2023-04-06T04:10:16;99267.28;;;3.38;71.51
37066;BME280;22981;43.080;25.550;2023-04-06T04:12:44;99266.11;;;3.40;71.39
37066;BME280;22981;43.080;25.550;2023-04-06T04:15:12;99266.27;;;3.43;71.36
37066;BME280;22981;43.080;25.550;2023-04-06T04:17:39;99261.92;;;3.46;71.29
37066;BME280;22981;43.080;25.550;2023-04-06T04:20:08;99261.61;;;3.45;71.18
37066;BME280;22981;43.080;25.550;2023-04-06T04:22:35;99260.13;;;3.42;71.20
37066;BME280;22981;43.080;25.550;2023-04-06T04:25:03;99259.34;;;3.38;71.19
37066;BME280;22981;43.080;25.550;2023-04-06T04:27:31;99261.70;;;3.33;71.36
37066;BME280;22981;43.080;25.550;2023-04-06T04:29:58;99266.02;;;3.30;71.36
37066;BME280;22981;43.080;25.550;2023-04-06T04:32:27;99259.31;;;3.23;71.51
37066;BME280;22981;43.080;25.550;2023-04-06T04:34:54;99262.11;;;3.25;71.62
37066;BME280;22981;43.080;25.550;2023-04-06T04:37:22;99262.39;;;3.31;71.78
37066;BME280;22981;43.080;25.550;2023-04-06T04:39:49;99261.36;;;3.36;71.65
37066;BME280;22981;43.080;25.550;2023-04-06T04:42:17;99266.77;;;3.38;71.61
37066;BME280;22981;43.080;25.550;2023-04-06T04:44:45;99263.15;;;3.39;71.55
37066;BME280;22981;43.080;25.550;2023-04-06T04:47:12;99262.48;;;3.37;71.61
37066;BME280;22981;43.080;25.550;2023-04-06T04:49:40;99259.50;;;3.40;71.70
37066;BME280;22981;43.080;25.550;2023-04-06T04:52:07;99253.16;;;3.45;71.68
37066;BME280;22981;43.080;25.550;2023-04-06T04:54:35;99259.23;;;3.50;71.63
37066;BME280;22981;43.080;25.550;2023-04-06T04:57:02;99259.05;;;3.56;71.54
37066;BME280;22981;43.080;25.550;2023-04-06T04:59:30;99260.30;;;3.60;71.49
37066;BME280;22981;43.080;25.550;2023-04-06T05:01:58;99264.58;;;3.65;71.36
37066;BME280;22981;43.080;25.550;2023-04-06T05:04:25;99259.91;;;3.67;71.35
37066;BME280;22981;43.080;25.550;2023-04-06T05:07:09;99260.70;;;3.71;71.24
37066;BME280;22981;43.080;25.550;2023-04-06T05:09:36;99263.14;;;3.77;71.10
37066;BME280;22981;43.080;25.550;2023-04-06T05:12:04;99263.08;;;3.81;70.85
37066;BME280;22981;43.080;25.550;2023-04-06T05:14:32;99264.59;;;3.80;70.84
37066;BME280;22981;43.080;25.550;2023-04-06T05:16:59;99263.27;;;3.80;70.94
37066;BME280;22981;43.080;25.550;2023-04-06T05:19:27;99262.13;;;3.78;71.09
37066;BME280;22981;43.080;25.550;2023-04-06T05:21:55;99262.76;;;3.80;71.18
37066;BME280;22981;43.080;25.550;2023-04-06T05:24:22;99256.10;;;3.84;71.17
37066;BME280;22981;43.080;25.550;2023-04-06T05:26:50;99257.27;;;3.86;71.21
37066;BME280;22981;43.080;25.550;2023-04-06T05:29:19;99255.05;;;3.89;71.21
37066;BME280;22981;43.080;25.550;2023-04-06T05:31:47;99251.86;;;3.94;71.22
37066;BME280;22981;43.080;25.550;2023-04-06T05:34:15;99256.95;;;3.99;71.23
37066;BME280;22981;43.080;25.550;2023-04-06T05:36:42;99251.56;;;4.08;71.17
37066;BME280;22981;43.080;25.550;2023-04-06T05:39:10;99255.56;;;4.18;71.04
37066;BME280;22981;43.080;25.550;2023-04-06T05:41:38;99250.17;;;4.26;70.87
37066;BME280;22981;43.080;25.550;2023-04-06T05:44:06;99245.52;;;4.29;70.79
37066;BME280;22981;43.080;25.550;2023-04-06T05:46:33;99252.58;;;4.32;70.73
37066;BME280;22981;43.080;25.550;2023-04-06T05:49:01;99247.78;;;4.32;70.73
37066;BME280;22981;43.080;25.550;2023-04-06T05:51:29;99248.13;;;4.33;70.76
37066;BME280;22981;43.080;25.550;2023-04-06T05:53:56;99246.61;;;4.34;70.65
37066;BME280;22981;43.080;25.550;2023-04-06T05:56:24;99237.64;;;4.35;70.54
37066;BME280;22981;43.080;25.550;2023-04-06T05:58:52;99239.99;;;4.45;70.52
37066;BME280;22981;43.080;25.550;2023-04-06T06:01:20;99232.45;;;4.52;70.19
37066;BME280;22981;43.080;25.550;2023-04-06T06:03:47;99240.48;;;4.59;69.76
37066;BME280;22981;43.080;25.550;2023-04-06T06:06:15;99238.72;;;4.66;69.35
37066;BME280;22981;43.080;25.550;2023-04-06T06:08:43;99226.56;;;4.72;68.78
37066;BME280;22981;43.080;25.550;2023-04-06T06:11:10;99228.34;;;4.75;68.34
37066;BME280;22981;43.080;25.550;2023-04-06T06:13:38;99227.77;;;4.80;68.05
37066;BME280;22981;43.080;25.550;2023-04-06T06:16:05;99224.92;;;4.82;67.59
37066;BME280;22981;43.080;25.550;2023-04-06T06:18:33;99221.56;;;4.84;67.01
37066;BME280;22981;43.080;25.550;2023-04-06T06:21:00;99215.77;;;4.84;66.71
37066;BME280;22981;43.080;25.550;2023-04-06T06:23:28;99215.27;;;4.85;66.28
37066;BME280;22981;43.080;25.550;2023-04-06T06:25:56;99213.06;;;4.88;66.28
37066;BME280;22981;43.080;25.550;2023-04-06T06:28:24;99214.44;;;4.95;66.21
37066;BME280;22981;43.080;25.550;2023-04-06T06:30:52;99213.05;;;4.99;65.82
37066;BME280;22981;43.080;25.550;2023-04-06T06:33:20;99214.01;;;5.02;65.53
37066;BME280;22981;43.080;25.550;2023-04-06T06:35:47;99215.27;;;5.06;65.42
37066;BME280;22981;43.080;25.550;2023-04-06T06:38:15;99217.05;;;5.10;65.11
37066;BME280;22981;43.080;25.550;2023-04-06T06:40:42;99219.19;;;5.10;64.88
37066;BME280;22981;43.080;25.550;2023-04-06T06:43:10;99219.94;;;5.15;64.80
37066;BME280;22981;43.080;25.550;2023-04-06T06:45:37;99193.53;;;5.07;64.72
37066;BME280;22981;43.080;25.550;2023-04-06T06:48:05;99217.02;;;5.20;64.46
37066;BME280;22981;43.080;25.550;2023-04-06T06:50:32;99223.08;;;5.25;64.46
37066;BME280;22981;43.080;25.550;2023-04-06T06:53:00;99224.55;;;5.27;64.32
37066;BME280;22981;43.080;25.550;2023-04-06T06:55:28;99224.03;;;5.28;64.10
37066;BME280;22981;43.080;25.550;2023-04-06T06:57:55;99219.34;;;5.30;63.81
37066;BME280;22981;43.080;25.550;2023-04-06T07:00:23;99226.80;;;5.31;63.75
37066;BME280;22981;43.080;25.550;2023-04-06T07:02:50;99224.48;;;5.32;63.38
37066;BME280;22981;43.080;25.550;2023-04-06T07:05:18;99223.53;;;5.28;62.83
37066;BME280;22981;43.080;25.550;2023-04-06T07:07:46;99228.83;;;5.28;63.12
37066;BME280;22981;43.080;25.550;2023-04-06T07:10:13;99221.01;;;5.31;62.99
37066;BME280;22981;43.080;25.550;2023-04-06T07:12:41;99222.13;;;5.33;63.04
37066;BME280;22981;43.080;25.550;2023-04-06T07:15:09;99219.41;;;5.37;62.95
37066;BME280;22981;43.080;25.550;2023-04-06T07:17:36;99225.33;;;5.39;62.87
37066;BME280;22981;43.080;25.550;2023-04-06T07:20:04;99220.36;;;5.40;62.66
37066;BME280;22981;43.080;25.550;2023-04-06T07:22:32;99218.52;;;5.40;62.58
37066;BME280;22981;43.080;25.550;2023-04-06T07:25:00;99221.63;;;5.44;62.70
37066;BME280;22981;43.080;25.550;2023-04-06T07:27:27;99221.05;;;5.48;62.66
37066;BME280;22981;43.080;25.550;2023-04-06T07:29:55;99215.16;;;5.53;62.33
37066;BME280;22981;43.080;25.550;2023-04-06T07:32:22;99211.78;;;5.55;62.14
37066;BME280;22981;43.080;25.550;2023-04-06T07:34:50;99213.55;;;5.59;62.04
37066;BME280;22981;43.080;25.550;2023-04-06T07:37:18;99208.78;;;5.65;62.00
37066;BME280;22981;43.080;25.550;2023-04-06T07:39:45;99209.66;;;5.72;62.04
37066;BME280;22981;43.080;25.550;2023-04-06T07:42:13;99207.53;;;5.78;61.92
37066;BME280;22981;43.080;25.550;2023-04-06T07:44:40;99215.77;;;5.83;61.70
37066;BME280;22981;43.080;25.550;2023-04-06T07:47:08;99211.06;;;5.85;61.57
37066;BME280;22981;43.080;25.550;2023-04-06T07:49:35;99215.27;;;5.90;61.57
37066;BME280;22981;43.080;25.550;2023-04-06T07:52:03;99212.40;;;5.96;61.51
37066;BME280;22981;43.080;25.550;2023-04-06T07:54:31;99212.80;;;5.99;61.24
37066;BME280;22981;43.080;25.550;2023-04-06T07:56:58;99203.42;;;6.03;61.21
37066;BME280;22981;43.080;25.550;2023-04-06T07:59:26;99208.99;;;6.09;60.91
37066;BME280;22981;43.080;25.550;2023-04-06T08:01:54;99214.23;;;6.13;60.79
37066;BME280;22981;43.080;25.550;2023-04-06T08:04:21;99210.25;;;6.19;60.65
37066;BME280;22981;43.080;25.550;2023-04-06T08:06:49;99210.81;;;6.25;60.50
37066;BME280;22981;43.080;25.550;2023-04-06T08:09:16;99207.05;;;6.31;60.27
37066;BME280;22981;43.080;25.550;2023-04-06T08:11:44;99202.07;;;6.38;60.11
37066;BME280;22981;43.080;25.550;2023-04-06T08:14:12;99197.88;;;6.46;59.98
37066;BME280;22981;43.080;25.550;2023-04-06T08:16:40;99204.88;;;6.54;59.73
37066;BME280;22981;43.080;25.550;2023-04-06T08:19:07;99202.03;;;6.56;59.48
37066;BME280;22981;43.080;25.550;2023-04-06T08:21:36;99197.95;;;6.60;59.58
37066;BME280;22981;43.080;25.550;2023-04-06T08:24:04;99200.91;;;6.67;59.58
37066;BME280;22981;43.080;25.550;2023-04-06T08:26:32;99195.63;;;6.74;59.42
37066;BME280;22981;43.080;25.550;2023-04-06T08:29:00;99199.43;;;6.82;59.14
37066;BME280;22981;43.080;25.550;2023-04-06T08:31:27;99197.28;;;6.88;58.68
37066;BME280;22981;43.080;25.550;2023-04-06T08:33:55;99193.50;;;6.93;58.56
37066;BME280;22981;43.080;25.550;2023-04-06T08:36:23;99196.88;;;6.98;58.42
37066;BME280;22981;43.080;25.550;2023-04-06T08:38:51;99196.78;;;7.02;58.41
37066;BME280;22981;43.080;25.550;2023-04-06T08:41:18;99193.72;;;7.05;58.35
37066;BME280;22981;43.080;25.550;2023-04-06T08:44:01;99194.66;;;7.08;58.23
37066;BME280;22981;43.080;25.550;2023-04-06T08:46:26;99198.65;;;7.08;58.19
37066;BME280;22981;43.080;25.550;2023-04-06T08:48:57;99199.34;;;7.06;58.15
37066;BME280;22981;43.080;25.550;2023-04-06T08:51:26;99195.36;;;7.06;58.26
37066;BME280;22981;43.080;25.550;2023-04-06T08:53:57;99195.77;;;7.10;58.23
37066;BME280;22981;43.080;25.550;2023-04-06T08:56:27;99195.77;;;7.10;58.22
37066;BME280;22981;43.080;25.550;2023-04-06T08:58:56;99199.88;;;7.12;58.01
37066;BME280;22981;43.080;25.550;2023-04-06T09:01:26;99196.92;;;7.11;57.68
37066;BME280;22981;43.080;25.550;2023-04-06T09:03:56;99204.06;;;7.11;57.29
37066;BME280;22981;43.080;25.550;2023-04-06T09:06:26;99199.16;;;7.08;57.51
37066;BME280;22981;43.080;25.550;2023-04-06T09:08:53;99205.39;;;7.11;57.38
37066;BME280;22981;43.080;25.550;2023-04-06T09:11:21;99203.58;;;7.11;57.46
37066;BME280;22981;43.080;25.550;2023-04-06T09:13:51;99202.03;;;7.13;57.37
37066;BME280;22981;43.080;25.550;2023-04-06T09:16:19;99206.44;;;7.16;57.43
37066;BME280;22981;43.080;25.550;2023-04-06T09:18:47;99197.92;;;7.23;57.22
37066;BME280;22981;43.080;25.550;2023-04-06T09:21:17;99195.39;;;7.33;57.08
37066;BME280;22981;43.080;25.550;2023-04-06T09:23:45;99189.95;;;7.43;56.92
37066;BME280;22981;43.080;25.550;2023-04-06T09:26:16;99189.52;;;7.60;56.91
37066;BME280;22981;43.080;25.550;2023-04-06T09:28:53;99183.66;;;7.80;56.73
37066;BME280;22981;43.080;25.550;2023-04-06T09:31:28;99182.36;;;8.02;56.10
37066;BME280;22981;43.080;25.550;2023-04-06T09:33:52;99179.02;;;8.20;55.44
37066;BME280;22981;43.080;25.550;2023-04-06T09:36:30;99175.16;;;8.39;55.52
37066;BME280;22981;43.080;25.550;2023-04-06T09:38:54;99175.81;;;8.57;55.03
37066;BME280;22981;43.080;25.550;2023-04-06T09:41:27;99168.67;;;8.66;54.75
37066;BME280;22981;43.080;25.550;2023-04-06T09:44:09;99152.02;;;8.71;54.46
37066;BME280;22981;43.080;25.550;2023-04-06T09:46:39;99162.56;;;8.75;54.41
37066;BME280;22981;43.080;25.550;2023-04-06T09:49:08;99159.25;;;8.80;53.89
37066;BME280;22981;43.080;25.550;2023-04-06T09:51:41;99150.49;;;8.82;53.86
37066;BME280;22981;43.080;25.550;2023-04-06T09:54:09;99153.72;;;8.90;53.91
37066;BME280;22981;43.080;25.550;2023-04-06T09:59:22;99149.73;;;9.15;53.77
37066;BME280;22981;43.080;25.550;2023-04-06T10:01:48;99150.38;;;9.26;53.64
37066;BME280;22981;43.080;25.550;2023-04-06T10:06:52;99144.95;;;9.33;53.51
37066;BME280;22981;43.080;25.550;2023-04-06T10:09:24;99147.20;;;9.36;53.68
37066;BME280;22981;43.080;25.550;2023-04-06T10:11:52;99150.16;;;9.37;53.48
37066;BME280;22981;43.080;25.550;2023-04-06T10:14:20;99139.32;;;9.32;52.98
37066;BME280;22981;43.080;25.550;2023-04-06T10:16:49;99145.09;;;9.29;53.28
37066;BME280;22981;43.080;25.550;2023-04-06T10:19:20;99147.61;;;9.24;53.12
37066;BME280;22981;43.080;25.550;2023-04-06T10:21:50;99148.27;;;9.19;53.21
37066;BME280;22981;43.080;25.550;2023-04-06T10:24:18;99144.26;;;9.19;53.40
37066;BME280;22981;43.080;25.550;2023-04-06T10:27:02;99146.21;;;9.21;53.32
37066;BME280;22981;43.080;25.550;2023-04-06T10:29:47;99139.53;;;9.21;53.25
37066;BME280;22981;43.080;25.550;2023-04-06T10:32:16;99139.73;;;9.20;52.88
37066;BME280;22981;43.080;25.550;2023-04-06T10:34:44;99143.45;;;9.19;52.86
37066;BME280;22981;43.080;25.550;2023-04-06T10:37:15;99139.86;;;9.16;52.74
37066;BME280;22981;43.080;25.550;2023-04-06T10:39:53;99139.86;;;9.16;52.78
37066;BME280;22981;43.080;25.550;2023-04-06T10:42:37;99134.84;;;9.17;52.92
37066;BME280;22981;43.080;25.550;2023-04-06T10:45:07;99134.25;;;9.24;52.97
37066;BME280;22981;43.080;25.550;2023-04-06T10:47:40;99128.48;;;9.27;52.88
37066;BME280;22981;43.080;25.550;2023-04-06T10:50:08;99135.31;;;9.32;52.83
37066;BME280;22981;43.080;25.550;2023-04-06T10:52:37;99127.68;;;9.36;52.48
37066;BME280;22981;43.080;25.550;2023-04-06T10:55:05;99127.39;;;9.35;52.58
37066;BME280;22981;43.080;25.550;2023-04-06T10:57:33;99132.50;;;9.36;52.67
37066;BME280;22981;43.080;25.550;2023-04-06T11:00:04;99133.55;;;9.35;52.51
37066;BME280;22981;43.080;25.550;2023-04-06T11:02:32;99127.39;;;9.35;52.56
37066;BME280;22981;43.080;25.550;2023-04-06T11:05:00;99123.67;;;9.36;52.21
37066;BME280;22981;43.080;25.550;2023-04-06T11:07:28;99122.11;;;9.37;51.82
37066;BME280;22981;43.080;25.550;2023-04-06T11:09:57;99113.66;;;9.40;51.89
37066;BME280;22981;43.080;25.550;2023-04-06T11:12:26;99115.91;;;9.43;51.78
37066;BME280;22981;43.080;25.550;2023-04-06T11:14:59;99113.15;;;9.50;51.91
37066;BME280;22981;43.080;25.550;2023-04-06T11:17:36;99113.61;;;9.56;51.51
37066;BME280;22981;43.080;25.550;2023-04-06T11:20:09;99104.55;;;9.57;51.55
37066;BME280;22981;43.080;25.550;2023-04-06T11:22:34;99108.13;;;9.60;51.76
37066;BME280;22981;43.080;25.550;2023-04-06T11:25:08;99103.89;;;9.62;51.43
37066;BME280;22981;43.080;25.550;2023-04-06T11:27:36;99099.97;;;9.64;51.42
37066;BME280;22981;43.080;25.550;2023-04-06T11:30:05;99098.77;;;9.69;51.37
37066;BME280;22981;43.080;25.550;2023-04-06T11:32:44;99096.62;;;9.78;51.52
37066;BME280;22981;43.080;25.550;2023-04-06T11:35:20;99089.41;;;9.88;51.28
37066;BME280;22981;43.080;25.550;2023-04-06T11:37:49;99089.02;;;9.93;50.79
37066;BME280;22981;43.080;25.550;2023-04-06T11:40:23;99087.84;;;9.98;50.29
37066;BME280;22981;43.080;25.550;2023-04-06T11:42:57;99083.36;;;10.01;50.11
37066;BME280;22981;43.080;25.550;2023-04-06T11:45:25;99085.88;;;10.06;50.02
37066;BME280;22981;43.080;25.550;2023-04-06T11:47:58;99080.59;;;10.17;50.32
37066;BME280;22981;43.080;25.550;2023-04-06T11:50:32;99081.13;;;10.26;50.32
37066;BME280;22981;43.080;25.550;2023-04-06T11:53:02;99075.75;;;10.35;50.46
37066;BME280;22981;43.080;25.550;2023-04-06T11:55:36;99074.66;;;10.55;50.45
37066;BME280;22981;43.080;25.550;2023-04-06T11:57:59;99078.63;;;10.64;49.88
37066;BME280;22981;43.080;25.550;2023-04-06T12:00:27;99073.69;;;10.58;49.63
37066;BME280;22981;43.080;25.550;2023-04-06T12:02:56;99068.70;;;10.52;49.74
37066;BME280;22981;43.080;25.550;2023-04-06T12:05:25;99079.04;;;10.49;49.69
37066;BME280;22981;43.080;25.550;2023-04-06T12:07:53;99071.54;;;10.48;50.37
37066;BME280;22981;43.080;25.550;2023-04-06T12:10:21;99075.50;;;10.46;50.33
37066;BME280;22981;43.080;25.550;2023-04-06T12:12:49;99073.20;;;10.40;50.60
37066;BME280;22981;43.080;25.550;2023-04-06T12:15:16;99073.52;;;10.41;50.96
37066;BME280;22981;43.080;25.550;2023-04-06T12:17:44;99073.52;;;10.41;51.28
37066;BME280;22981;43.080;25.550;2023-04-06T12:20:11;99073.15;;;10.38;51.53
37066;BME280;22981;43.080;25.550;2023-04-06T12:22:40;99075.48;;;10.25;51.58
37066;BME280;22981;43.080;25.550;2023-04-06T12:25:08;99074.14;;;10.16;51.75
37066;BME280;22981;43.080;25.550;2023-04-06T12:27:36;99071.10;;;10.12;51.73
37066;BME280;22981;43.080;25.550;2023-04-06T12:30:05;99069.77;;;10.12;51.73
37066;BME280;22981;43.080;25.550;2023-04-06T12:32:32;99064.98;;;10.14;51.70
37066;BME280;22981;43.080;25.550;2023-04-06T12:35:00;99068.48;;;10.15;51.66
37066;BME280;22981;43.080;25.550;2023-04-06T12:37:28;99069.77;;;10.12;51.71
37066;BME280;22981;43.080;25.550;2023-04-06T12:39:55;99064.33;;;10.10;51.81
37066;BME280;22981;43.080;25.550;2023-04-06T12:42:23;99062.19;;;10.09;51.63
37066;BME280;22981;43.080;25.550;2023-04-06T12:44:51;99066.56;;;10.13;51.72
37066;BME280;22981;43.080;25.550;2023-04-06T12:47:18;99064.13;;;10.11;51.56
37066;BME280;22981;43.080;25.550;2023-04-06T12:49:46;99063.39;;;10.04;51.65
37066;BME280;22981;43.080;25.550;2023-04-06T12:52:13;99069.70;;;10.00;51.63
37066;BME280;22981;43.080;25.550;2023-04-06T12:54:42;99065.03;;;9.96;51.63
37066;BME280;22981;43.080;25.550;2023-04-06T12:57:09;99062.52;;;9.92;51.72
37066;BME280;22981;43.080;25.550;2023-04-06T12:59:37;99062.80;;;9.93;51.86
37066;BME280;22981;43.080;25.550;2023-04-06T13:02:05;99064.22;;;9.95;51.89
37066;BME280;22981;43.080;25.550;2023-04-06T13:04:32;99055.15;;;9.96;51.89
37066;BME280;22981;43.080;25.550;2023-04-06T13:07:00;99045.39;;;10.02;51.86
37066;BME280;22981;43.080;25.550;2023-04-06T13:09:27;99045.82;;;10.17;51.70
37066;BME280;22981;43.080;25.550;2023-04-06T13:11:55;99041.94;;;10.32;51.02